CYBG

CFB Bagotville Airport

Bagotville, Quebec, Canada
METAR CYBG 122000Z 27007KT 25SM SKC M16/M23 A3026 RMK SLP267
Observed Flight Rules
Dec-12 @ 20:00 UTC (an hour ago) Visual Flight Rules
Wind Visibility Clouds
270° at 7 knots 25 miles
  • Clear skies
Temperatures Readings
Current -16°C / 3°F
Dewpoint -23°C / -9°F
Humidity 55%
Altimeter 30.26" Hg
Pressure 1026.7 hPa
Elevation 159
METAR CYBG 122000Z 27007KT 25SM SKC M16/M23 A3026 RMK SLP267
Observed Flight Rules
Dec-12 @ 20:00 UTC
(an hour ago)
VFR
Wind Visibility
270° at 7 knots 25 miles
Clouds
  • Clear skies
Temperature Dewpoint
-16°C / 3°F -23°C / -9°F
Humidity Altimeter Pressure
55% 30.26" Hg 1026.7 hPa